Time,TemperatureF,DewpointF,PressureIn,WindDirection,WindDirectionDegrees,WindSpeedMPH,WindSpeedGustMPH,Humidity,HourlyPrecipIn,Conditions,Clouds,dailyrainin,SoftwareType,DateUTC
2013-02-11 00:00:00,10.8,1.0,30.25,SSE,152,0.0,0.0,64,0.00,,CLR,0.00,VWS V14.01,2013-02-11 05:00:00,
2013-02-11 00:01:00,10.9,1.2,30.25,SSE,152,0.0,0.0,64,0.00,,CLR,0.00,VWS V14.01,2013-02-11 05:01:00,
2013-02-11 00:06:00,10.9,1.2,30.25,SSE,152,0.0,0.0,64,0.00,,CLR,0.00,VWS V14.01,2013-02-11 05:06:00,
2013-02-11 00:11:00,11.1,1.3,30.25,SSE,152,0.0,0.0,64,0.00,,CLR,0.00,VWS V14.01,2013-02-11 05:11:00,
2013-02-11 00:16:00,11.1,1.3,30.25,SSE,152,0.0,0.0,64,0.00,,CLR,0.00,VWS V14.01,2013-02-11 05:16:00,
2013-02-11 00:21:00,11.7,1.9,30.25,North,6,0.0,0.0,64,0.00,,CLR,0.00,VWS V14.01,2013-02-11 05:21:00,
2013-02-11 00:26:00,12.2,2.4,30.25,North,6,0.0,0.0,64,0.00,,CLR,0.00,VWS V14.01,2013-02-11 05:26:00,
2013-02-11 00:31:00,12.7,2.9,30.22,North,6,0.0,0.0,64,0.00,,CLR,0.00,VWS V14.01,2013-02-11 05:31:00,
2013-02-11 00:36:00,13.3,3.4,30.22,North,357,0.0,0.0,64,0.00,,CLR,0.00,VWS V14.01,2013-02-11 05:36:00,
2013-02-11 00:41:00,14.4,7.0,30.22,North,357,0.0,0.0,72,0.00,,CLR,0.00,VWS V14.01,2013-02-11 05:41:00,
2013-02-11 00:46:00,15.4,8.0,30.22,North,357,0.0,0.0,72,0.00,,CLR,0.00,VWS V14.01,2013-02-11 05:46:00,
2013-02-11 00:51:00,16.5,9.4,30.22,North,353,0.0,0.0,73,0.00,,CLR,0.00,VWS V14.01,2013-02-11 05:51:00,
2013-02-11 00:56:00,17.2,10.1,30.22,NNW,344,2.2,2.2,73,0.00,,CLR,0.00,VWS V14.01,2013-02-11 05:56:00,
2013-02-11 01:01:00,18.1,10.6,30.22,North,357,3.6,3.6,72,0.00,,CLR,0.00,VWS V14.01,2013-02-11 06:01:00,
2013-02-11 01:06:00,18.3,10.8,30.22,North,4,2.2,3.1,72,0.00,,CLR,0.00,VWS V14.01,2013-02-11 06:06:00,
2013-02-11 01:11:00,19.0,11.2,30.22,North,3,0.0,2.7,71,0.00,,CLR,0.00,VWS V14.01,2013-02-11 06:11:00,
2013-02-11 01:16:00,18.9,10.7,30.22,North,357,0.0,0.0,70,0.00,,CLR,0.00,VWS V14.01,2013-02-11 06:16:00,
2013-02-11 01:21:00,18.5,10.0,30.22,SSE,166,0.0,0.0,69,0.00,,CLR,0.00,VWS V14.01,2013-02-11 06:21:00,
2013-02-11 01:26:00,18.3,9.5,30.22,SSE,166,0.0,0.0,68,0.00,,CLR,0.00,VWS V14.01,2013-02-11 06:26:00,
2013-02-11 01:31:00,18.1,9.0,30.19,SSE,147,0.0,0.0,67,0.00,,CLR,0.00,VWS V14.01,2013-02-11 06:31:00,
2013-02-11 01:36:00,18.1,9.0,30.19,SSE,147,0.0,0.0,67,0.00,,CLR,0.00,VWS V14.01,2013-02-11 06:36:00,
2013-02-11 01:41:00,18.3,9.2,30.19,SSE,147,0.0,0.0,67,0.00,,SCT110,0.00,VWS V14.01,2013-02-11 06:41:00,
2013-02-11 01:46:00,18.3,8.9,30.19,SSE,147,0.0,0.0,66,0.00,,SCT110,0.00,VWS V14.01,2013-02-11 06:46:00,
2013-02-11 01:51:00,18.5,9.1,30.19,NNE,17,0.0,0.0,66,0.00,,SCT110,0.00,VWS V14.01,2013-02-11 06:51:00,
2013-02-11 01:56:00,18.9,9.4,30.19,NNE,17,0.0,0.0,66,0.00,,SCT110,0.00,VWS V14.01,2013-02-11 06:56:00,
2013-02-11 02:01:00,19.0,9.6,30.19,NNE,17,0.0,0.0,66,0.00,,SCT110,0.00,VWS V14.01,2013-02-11 07:01:00,
2013-02-11 02:06:00,19.2,9.7,30.19,NNE,17,0.0,0.0,66,0.00,,SCT110,0.00,VWS V14.01,2013-02-11 07:06:00,
2013-02-11 02:11:00,19.6,9.7,30.19,North,2,0.0,0.0,65,0.00,,SCT110,0.00,VWS V14.01,2013-02-11 07:11:00,
2013-02-11 02:16:00,19.8,9.9,30.19,NW,326,3.1,3.1,65,0.00,,SCT110,0.00,VWS V14.01,2013-02-11 07:16:00,
2013-02-11 02:21:00,20.1,9.9,30.19,North,357,0.0,0.0,64,0.00,,SCT110,0.00,VWS V14.01,2013-02-11 07:21:00,
2013-02-11 02:26:00,20.1,10.3,30.19,North,357,0.0,0.0,65,0.00,,SCT110,0.00,VWS V14.01,2013-02-11 07:26:00,
2013-02-11 02:31:00,20.3,10.4,30.19,North,357,0.0,0.0,65,0.00,,OVC110,0.00,VWS V14.01,2013-02-11 07:31:00,
2013-02-11 02:36:00,20.8,10.9,30.19,North,9,0.0,0.0,65,0.00,,OVC110,0.00,VWS V14.01,2013-02-11 07:36:00,
2013-02-11 02:41:00,21.7,11.8,30.19,North,353,0.0,0.0,65,0.00,,OVC110,0.00,VWS V14.01,2013-02-11 07:41:00,
2013-02-11 02:46:00,22.1,12.1,30.19,North,353,0.0,0.0,65,0.00,,OVC110,0.00,VWS V14.01,2013-02-11 07:46:00,
2013-02-11 02:51:00,22.5,12.1,30.16,North,353,0.0,0.0,64,0.00,,OVC110,0.00,VWS V14.01,2013-02-11 07:51:00,
2013-02-11 02:56:00,22.8,12.1,30.16,North,357,0.0,0.0,63,0.00,,OVC110,0.00,VWS V14.01,2013-02-11 07:56:00,
2013-02-11 03:01:00,23.2,12.1,30.16,NW,315,0.0,0.0,62,0.00,,OVC110,0.00,VWS V14.01,2013-02-11 08:01:00,
2013-02-11 03:06:00,23.4,11.9,30.16,NNW,331,3.6,5.4,61,0.00,,OVC110,0.00,VWS V14.01,2013-02-11 08:06:00,
2013-02-11 03:11:00,23.4,11.2,30.16,NNW,336,0.0,0.0,59,0.00,,OVC110,0.00,VWS V14.01,2013-02-11 08:11:00,
2013-02-11 03:16:00,22.8,10.6,30.13,North,353,0.0,0.0,59,0.00,,OVC110,0.00,VWS V14.01,2013-02-11 08:16:00,
2013-02-11 03:21:00,22.6,10.5,30.13,NNE,22,0.0,2.2,59,0.00,,OVC110,0.00,VWS V14.01,2013-02-11 08:21:00,
2013-02-11 03:26:00,22.3,10.5,30.13,North,357,0.0,0.0,60,0.00,,OVC110,0.00,VWS V14.01,2013-02-11 08:26:00,
2013-02-11 03:31:00,22.3,10.5,30.13,NNW,332,0.0,0.0,60,0.00,,OVC110,0.00,VWS V14.01,2013-02-11 08:31:00,
2013-02-11 03:36:00,22.3,10.5,30.13,North,353,4.5,4.5,60,0.00,,OVC110,0.00,VWS V14.01,2013-02-11 08:36:00,
2013-02-11 03:41:00,22.3,10.9,30.13,North,353,0.0,0.0,61,0.00,,OVC100,0.00,VWS V14.01,2013-02-11 08:41:00,
2013-02-11 03:46:00,22.3,10.5,30.10,NNW,346,0.0,0.0,60,0.00,,OVC100,0.00,VWS V14.01,2013-02-11 08:46:00,
2013-02-11 03:51:00,22.3,10.9,30.10,NNW,346,0.0,0.0,61,0.00,,OVC100,0.00,VWS V14.01,2013-02-11 08:51:00,
2013-02-11 03:56:00,22.8,11.0,30.10,SE,145,2.7,2.7,60,0.00,,OVC100,0.00,VWS V14.01,2013-02-11 08:56:00,
2013-02-11 04:01:00,23.4,11.5,30.10,SW,227,0.0,0.0,60,0.00,,OVC100,0.00,VWS V14.01,2013-02-11 09:01:00,
2013-02-11 04:06:00,23.9,11.7,30.10,SE,137,0.0,0.0,59,0.00,,OVC100,0.00,VWS V14.01,2013-02-11 09:06:00,
2013-02-11 04:11:00,24.3,12.0,30.10,North,353,0.0,0.0,59,0.00,,OVC100,0.00,VWS V14.01,2013-02-11 09:11:00,
2013-02-11 04:16:00,23.7,10.7,30.10,North,353,3.6,4.0,57,0.00,,OVC100,0.00,VWS V14.01,2013-02-11 09:16:00,
2013-02-11 04:21:00,23.9,10.9,30.10,NE,34,0.0,0.0,57,0.00,,OVC100,0.00,VWS V14.01,2013-02-11 09:21:00,
2013-02-11 04:26:00,24.1,9.0,30.10,SW,226,0.0,0.0,52,0.00,,OVC100,0.00,VWS V14.01,2013-02-11 09:26:00,
2013-02-11 04:31:00,24.1,9.0,30.10,NW,318,3.1,3.1,52,0.00,,OVC100,0.00,VWS V14.01,2013-02-11 09:31:00,
2013-02-11 04:36:00,23.7,9.1,30.10,North,2,0.0,0.0,53,0.00,,OVC100,0.00,VWS V14.01,2013-02-11 09:36:00,
2013-02-11 04:41:00,23.4,8.8,30.10,NNW,348,0.0,0.0,53,0.00,,OVC100,0.00,VWS V14.01,2013-02-11 09:41:00,
2013-02-11 04:46:00,23.0,8.9,30.10,North,0,0.0,0.0,54,0.00,,OVC100,0.00,VWS V14.01,2013-02-11 09:46:00,
2013-02-11 04:51:00,22.8,9.1,30.10,NNW,334,0.0,3.6,55,0.00,,OVC100,0.00,VWS V14.01,2013-02-11 09:51:00,
2013-02-11 04:56:00,22.6,9.3,30.10,North,353,3.1,4.0,56,0.00,,OVC100,0.00,VWS V14.01,2013-02-11 09:56:00,
2013-02-11 05:01:00,22.6,9.7,30.10,NNW,327,0.0,0.0,57,0.00,,OVC100,0.00,VWS V14.01,2013-02-11 10:01:00,
2013-02-11 05:06:00,22.8,9.5,30.10,North,357,0.0,0.0,56,0.00,,OVC100,0.00,VWS V14.01,2013-02-11 10:06:00,
2013-02-11 05:11:00,23.0,9.7,30.10,NNW,341,3.6,3.6,56,0.00,,OVC100,0.00,VWS V14.01,2013-02-11 10:11:00,
2013-02-11 05:16:00,22.8,9.9,30.07,NNW,337,3.6,3.6,57,0.00,,OVC100,0.00,VWS V14.01,2013-02-11 10:16:00,
2013-02-11 05:21:00,23.0,10.1,30.07,North,349,0.0,0.0,57,0.00,,OVC100,0.00,VWS V14.01,2013-02-11 10:21:00,
2013-02-11 05:26:00,23.0,10.1,30.07,NNW,329,0.0,0.0,57,0.00,,OVC100,0.00,VWS V14.01,2013-02-11 10:26:00,
2013-02-11 05:31:00,23.2,10.2,30.07,North,2,0.0,0.0,57,0.00,,OVC100,0.00,VWS V14.01,2013-02-11 10:31:00,
2013-02-11 05:36:00,23.5,10.6,30.07,NNE,17,2.7,3.6,57,0.00,,OVC100,0.00,VWS V14.01,2013-02-11 10:36:00,
2013-02-11 05:41:00,24.3,11.2,30.07,NNE,16,0.0,3.1,57,0.00,,OVC100,0.00,VWS V14.01,2013-02-11 10:41:00,
2013-02-11 05:46:00,25.9,11.5,30.07,North,0,0.0,0.0,54,0.00,,OVC100,0.00,VWS V14.01,2013-02-11 10:46:00,
2013-02-11 05:51:00,26.4,9.9,30.07,NNE,18,0.0,0.0,49,0.00,,OVC100,0.00,VWS V14.01,2013-02-11 10:51:00,
2013-02-11 05:56:00,26.8,10.2,30.07,WNW,297,0.0,0.0,49,0.00,,OVC100,0.00,VWS V14.01,2013-02-11 10:56:00,
2013-02-11 06:02:00,26.6,10.0,30.04,NW,314,0.0,0.0,49,0.00,,OVC100,0.00,VWS V14.01,2013-02-11 11:02:00,
2013-02-11 06:07:00,26.6,10.0,30.04,NNE,33,2.7,2.7,49,0.00,,OVC100,0.00,VWS V14.01,2013-02-11 11:07:00,
2013-02-11 06:12:00,26.6,8.6,30.04,ESE,118,0.0,0.0,46,0.00,,OVC100,0.00,VWS V14.01,2013-02-11 11:12:00,
2013-02-11 06:17:00,26.2,7.8,30.04,NNE,33,0.0,0.0,45,0.00,,OVC100,0.00,VWS V14.01,2013-02-11 11:17:00,
2013-02-11 06:22:00,26.4,8.5,30.04,North,357,3.6,3.6,46,0.00,,OVC100,0.00,VWS V14.01,2013-02-11 11:22:00,
2013-02-11 06:27:00,26.2,8.3,30.04,NE,42,0.0,0.0,46,0.00,,OVC100,0.00,VWS V14.01,2013-02-11 11:27:00,
2013-02-11 06:32:00,26.4,8.5,30.04,NW,311,0.0,0.0,46,0.00,,OVC100,0.00,VWS V14.01,2013-02-11 11:32:00,
2013-02-11 06:37:00,26.8,8.8,30.04,NW,316,0.0,0.0,46,0.00,,OVC100,0.00,VWS V14.01,2013-02-11 11:37:00,
2013-02-11 06:42:00,26.8,8.8,30.04,North,0,0.0,0.0,46,0.00,,OVC110,0.00,VWS V14.01,2013-02-11 11:42:00,
2013-02-11 06:47:00,27.0,8.9,30.01,WSW,241,0.0,0.0,46,0.00,,OVC110,0.00,VWS V14.01,2013-02-11 11:47:00,
2013-02-11 06:52:00,26.8,9.3,30.01,North,5,0.0,0.0,47,0.00,,OVC110,0.00,VWS V14.01,2013-02-11 11:52:00,
2013-02-11 06:57:00,26.6,9.6,30.01,NNE,18,0.0,0.0,48,0.00,,OVC110,0.00,VWS V14.01,2013-02-11 11:57:00,
2013-02-11 07:02:00,27.1,9.6,30.01,East,97,0.0,4.9,47,0.00,,OVC110,0.00,VWS V14.01,2013-02-11 12:02:00,
2013-02-11 07:07:00,27.7,10.1,30.01,SE,128,0.0,0.0,47,0.00,,OVC110,0.00,VWS V14.01,2013-02-11 12:07:00,
2013-02-11 07:12:00,28.6,9.4,30.01,NNW,339,4.9,6.3,44,0.00,,OVC110,0.00,VWS V14.01,2013-02-11 12:12:00,
2013-02-11 07:17:00,28.6,9.4,30.01,North,3,0.0,0.0,44,0.00,,OVC110,0.00,VWS V14.01,2013-02-11 12:17:00,
2013-02-11 07:22:00,28.6,9.9,30.01,NNE,23,0.0,0.0,45,0.00,,OVC110,0.00,VWS V14.01,2013-02-11 12:22:00,
2013-02-11 07:27:00,28.9,9.8,30.01,ENE,71,0.0,0.0,44,0.00,,OVC110,0.00,VWS V14.01,2013-02-11 12:27:00,
2013-02-11 07:32:00,28.9,9.8,30.01,NNE,33,0.0,0.0,44,0.00,,OVC110,0.00,VWS V14.01,2013-02-11 12:32:00,
2013-02-11 07:37:00,28.8,10.1,30.01,NNE,13,0.0,0.0,45,0.00,,OVC110,0.00,VWS V14.01,2013-02-11 12:37:00,
2013-02-11 07:42:00,28.6,9.4,30.01,ESE,107,0.0,0.0,44,0.00,,OVC110,0.00,VWS V14.01,2013-02-11 12:42:00,
2013-02-11 07:47:00,28.9,9.8,30.01,SSW,200,0.0,0.0,44,0.00,,OVC110,0.00,VWS V14.01,2013-02-11 12:47:00,
2013-02-11 07:52:00,29.3,10.6,30.01,East,83,0.0,0.0,45,0.00,,OVC090,0.00,VWS V14.01,2013-02-11 12:52:00,
2013-02-11 07:57:00,29.5,10.8,30.01,East,92,0.0,0.0,45,0.00,,OVC090,0.00,VWS V14.01,2013-02-11 12:57:00,
2013-02-11 08:02:00,29.5,11.3,30.01,NE,46,3.6,3.6,46,0.00,,OVC090,0.00,VWS V14.01,2013-02-11 13:02:00,
2013-02-11 08:07:00,29.7,10.9,30.01,NE,39,3.6,3.6,45,0.00,,OVC090,0.00,VWS V14.01,2013-02-11 13:07:00,
2013-02-11 08:12:00,29.8,11.1,30.01,SSW,196,0.0,0.0,45,0.00,,OVC090,0.00,VWS V14.01,2013-02-11 13:12:00,
2013-02-11 08:17:00,29.8,11.1,29.98,ESE,118,0.0,0.0,45,0.00,,OVC090,0.00,VWS V14.01,2013-02-11 13:17:00,
2013-02-11 08:22:00,29.8,11.6,29.98,South,173,0.0,0.0,46,0.00,,OVC090,0.00,VWS V14.01,2013-02-11 13:22:00,
2013-02-11 08:27:00,29.8,12.1,29.98,NNE,12,0.0,0.0,47,0.00,,OVC090,0.00,VWS V14.01,2013-02-11 13:27:00,
2013-02-11 08:32:00,29.7,12.4,29.98,NE,51,0.0,0.0,48,0.00,,OVC090,0.00,VWS V14.01,2013-02-11 13:32:00,
2013-02-11 08:37:00,29.7,13.3,29.98,North,9,0.0,0.0,50,0.00,,OVC090,0.00,VWS V14.01,2013-02-11 13:37:00,
2013-02-11 08:42:00,29.7,13.3,29.98,SSW,213,0.0,0.0,50,0.00,,OVC090,0.00,VWS V14.01,2013-02-11 13:42:00,
2013-02-11 08:47:00,29.5,13.6,29.98,East,97,0.0,2.7,51,0.00,,OVC090,0.00,VWS V14.01,2013-02-11 13:47:00,
2013-02-11 08:52:00,29.7,13.8,29.98,ESE,111,0.0,0.0,51,0.00,,OVC090,0.00,VWS V14.01,2013-02-11 13:52:00,
2013-02-11 08:57:00,30.0,14.5,29.98,East,89,0.0,0.0,52,0.00,,OVC090,0.00,VWS V14.01,2013-02-11 13:57:00,
2013-02-11 09:02:00,30.4,16.2,29.98,SE,138,5.4,5.4,55,0.00,,OVC090,0.00,VWS V14.01,2013-02-11 14:02:00,
2013-02-11 09:07:00,30.6,16.7,29.98,SSE,154,0.0,0.0,56,0.00,,OVC090,0.00,VWS V14.01,2013-02-11 14:07:00,
2013-02-11 09:12:00,30.2,16.4,29.98,North,6,0.0,2.7,56,0.00,,OVC090,0.00,VWS V14.01,2013-02-11 14:12:00,
2013-02-11 09:17:00,29.5,15.7,29.95,North,8,4.9,4.9,56,0.00,,OVC090,0.00,VWS V14.01,2013-02-11 14:17:00,
2013-02-11 09:22:00,28.8,15.1,29.95,ENE,76,0.0,0.0,56,0.00,,OVC090,0.00,VWS V14.01,2013-02-11 14:22:00,
2013-02-11 09:27:00,28.8,15.1,29.95,SSE,167,0.0,0.0,56,0.00,,OVC090,0.00,VWS V14.01,2013-02-11 14:27:00,
2013-02-11 09:32:00,29.5,16.1,29.95,SE,146,0.0,0.0,57,0.00,,OVC090,0.00,VWS V14.01,2013-02-11 14:32:00,
2013-02-11 09:37:00,29.7,16.7,29.95,SE,140,4.9,4.9,58,0.00,,OVC090,0.00,VWS V14.01,2013-02-11 14:37:00,
2013-02-11 09:42:00,30.7,18.5,29.95,ESE,121,2.7,3.6,60,0.00,,OVC080,0.00,VWS V14.01,2013-02-11 14:42:00,
2013-02-11 09:47:00,31.3,19.4,29.95,SSE,157,4.0,4.9,61,0.00,,OVC080,0.00,VWS V14.01,2013-02-11 14:47:00,
2013-02-11 09:52:00,31.5,20.0,29.95,SSE,150,5.4,7.6,62,0.00,,OVC080,0.00,VWS V14.01,2013-02-11 14:52:00,
2013-02-11 09:57:00,31.6,20.5,29.95,SSE,166,3.6,5.4,63,0.00,,OVC080,0.00,VWS V14.01,2013-02-11 14:57:00,
2013-02-11 10:03:00,31.6,20.9,29.95,ESE,114,0.0,5.4,64,0.00,,OVC080,0.00,VWS V14.01,2013-02-11 15:03:00,
2013-02-11 10:08:00,31.8,21.0,29.95,SSE,158,3.6,4.9,64,0.00,,OVC080,0.00,VWS V14.01,2013-02-11 15:08:00,
2013-02-11 10:13:00,31.8,21.4,29.95,SSE,153,0.0,2.7,65,0.00,,OVC080,0.00,VWS V14.01,2013-02-11 15:13:00,
2013-02-11 10:18:00,31.8,21.4,29.92,SSE,154,0.0,0.0,65,0.00,,OVC080,0.00,VWS V14.01,2013-02-11 15:18:00,
2013-02-11 10:23:00,31.8,21.8,29.92,SSE,153,4.9,4.9,66,0.00,,OVC080,0.00,VWS V14.01,2013-02-11 15:23:00,
2013-02-11 10:28:00,32.0,22.3,29.92,SSE,151,5.8,5.8,67,0.00,,OVC080,0.00,VWS V14.01,2013-02-11 15:28:00,
2013-02-11 10:33:00,32.5,23.5,29.92,SSE,167,7.6,7.6,69,0.00,,OVC080,0.00,VWS V14.01,2013-02-11 15:33:00,
2013-02-11 10:38:00,32.4,23.3,29.92,SSE,162,3.6,3.6,69,0.00,,OVC080,0.00,VWS V14.01,2013-02-11 15:38:00,
2013-02-11 10:43:00,32.2,23.2,29.92,NNW,339,0.0,0.0,69,0.00,,,0.00,VWS V14.01,2013-02-11 15:43:00,
2013-02-11 10:48:00,31.6,22.3,29.92,SSE,148,6.3,6.3,68,0.00,,,0.00,VWS V14.01,2013-02-11 15:48:00,
2013-02-11 10:53:00,32.0,23.3,29.92,South,178,4.0,5.4,70,0.00,,,0.00,VWS V14.01,2013-02-11 15:53:00,
2013-02-11 10:58:00,32.5,23.9,29.92,SSW,196,6.3,6.3,70,0.00,,,0.00,VWS V14.01,2013-02-11 15:58:00,
2013-02-11 11:03:00,33.1,24.7,29.92,SSE,152,2.2,4.5,71,0.00,,,0.00,VWS V14.01,2013-02-11 16:03:00,
2013-02-11 11:08:00,33.1,24.4,29.92,NNE,20,0.0,0.0,70,0.00,,,0.00,VWS V14.01,2013-02-11 16:08:00,
2013-02-11 11:13:00,32.2,22.8,29.92,North,353,0.0,0.0,68,0.00,,,0.00,VWS V14.01,2013-02-11 16:13:00,
2013-02-11 11:18:00,32.2,23.2,29.89,SSE,161,4.0,4.0,69,0.00,,,0.00,VWS V14.01,2013-02-11 16:18:00,
2013-02-11 11:23:00,32.7,24.0,29.89,SSE,168,4.0,4.0,70,0.00,,,0.00,VWS V14.01,2013-02-11 16:23:00,
2013-02-11 11:28:00,33.4,25.1,29.89,SSE,163,0.0,0.0,71,0.00,,,0.00,VWS V14.01,2013-02-11 16:28:00,
2013-02-11 11:33:00,33.3,24.9,29.89,NNE,28,0.0,0.0,71,0.00,,,0.00,VWS V14.01,2013-02-11 16:33:00,
2013-02-11 11:38:00,33.1,24.4,29.89,South,180,3.6,3.6,70,0.00,,,0.00,VWS V14.01,2013-02-11 16:38:00,
2013-02-11 11:43:00,33.1,24.7,29.89,North,357,0.0,0.0,71,0.00,,OVC035,0.00,VWS V14.01,2013-02-11 16:43:00,
2013-02-11 11:48:00,32.7,24.4,29.89,North,357,0.0,0.0,71,0.00,,OVC035,0.00,VWS V14.01,2013-02-11 16:48:00,
2013-02-11 11:53:00,32.7,24.4,29.89,South,182,6.7,6.7,71,0.00,,OVC035,0.00,VWS V14.01,2013-02-11 16:53:00,
2013-02-11 11:58:00,32.7,24.4,29.89,NNE,15,0.0,0.0,71,0.00,,OVC035,0.00,VWS V14.01,2013-02-11 16:58:00,
2013-02-11 12:03:00,32.7,24.4,29.86,North,357,0.0,0.0,71,0.00,,OVC035,0.00,VWS V14.01,2013-02-11 17:03:00,
2013-02-11 12:08:00,33.3,25.2,29.86,North,357,0.0,0.0,72,0.00,,OVC035,0.00,VWS V14.01,2013-02-11 17:08:00,
2013-02-11 12:13:00,33.8,26.1,29.86,ENE,78,0.0,0.0,73,0.00,,OVC035,0.00,VWS V14.01,2013-02-11 17:13:00,
2013-02-11 12:18:00,34.0,26.6,29.86,North,5,0.0,0.0,74,0.00,,OVC035,0.00,VWS V14.01,2013-02-11 17:18:00,
2013-02-11 12:23:00,34.0,26.2,29.86,NNE,25,0.0,0.0,73,0.00,,OVC035,0.00,VWS V14.01,2013-02-11 17:23:00,
2013-02-11 12:28:00,34.2,26.8,29.86,South,170,3.6,3.6,74,0.00,,OVC035,0.00,VWS V14.01,2013-02-11 17:28:00,
2013-02-11 12:33:00,35.1,28.0,29.86,SE,146,3.1,3.1,75,0.00,,OVC035,0.00,VWS V14.01,2013-02-11 17:33:00,
2013-02-11 12:38:00,35.2,28.1,29.86,SSE,153,0.0,0.0,75,0.00,,OVC035,0.00,VWS V14.01,2013-02-11 17:38:00,
2013-02-11 12:43:00,35.8,28.6,29.86,SW,227,0.0,0.0,75,0.00,,OVC030,0.00,VWS V14.01,2013-02-11 17:43:00,
2013-02-11 12:48:00,35.1,27.6,29.83,North,4,3.1,3.6,74,0.00,,OVC030,0.00,VWS V14.01,2013-02-11 17:48:00,
2013-02-11 12:53:00,34.2,26.1,29.83,North,350,3.6,3.6,72,0.00,,OVC030,0.00,VWS V14.01,2013-02-11 17:53:00,
2013-02-11 12:58:00,33.1,25.0,29.83,NNW,346,5.4,5.4,72,0.00,,OVC030,0.00,VWS V14.01,2013-02-11 17:58:00,
2013-02-11 13:03:00,32.9,24.9,29.83,North,0,3.6,3.6,72,0.00,,OVC030,0.00,VWS V14.01,2013-02-11 18:03:00,
2013-02-11 13:08:00,32.5,24.5,29.83,North,0,0.0,0.0,72,0.00,,OVC030,0.00,VWS V14.01,2013-02-11 18:08:00,
2013-02-11 13:13:00,32.5,24.5,29.83,NNW,342,0.0,0.0,72,0.00,,OVC030,0.00,VWS V14.01,2013-02-11 18:13:00,
2013-02-11 13:18:00,32.7,25.4,29.80,NNW,344,0.0,0.0,74,0.00,,OVC030,0.00,VWS V14.01,2013-02-11 18:18:00,
2013-02-11 13:23:00,32.7,25.4,29.80,NNW,344,5.4,5.4,74,0.00,,OVC030,0.00,VWS V14.01,2013-02-11 18:23:00,
2013-02-11 13:28:00,32.7,25.7,29.80,NNW,337,2.7,4.9,75,0.00,,OVC030,0.00,VWS V14.01,2013-02-11 18:28:00,
2013-02-11 13:33:00,32.5,25.5,29.80,North,357,7.6,7.6,75,0.00,,OVC030,0.00,VWS V14.01,2013-02-11 18:33:00,
2013-02-11 13:38:00,31.8,24.5,29.80,NNE,16,0.0,0.0,74,0.00,,OVC030,0.00,VWS V14.01,2013-02-11 18:38:00,
2013-02-11 13:43:00,31.5,24.5,29.80,North,1,0.0,2.7,75,0.00,,,0.00,VWS V14.01,2013-02-11 18:43:00,
2013-02-11 13:49:00,31.5,24.5,29.80,NW,316,5.8,5.8,75,0.00,,,0.00,VWS V14.01,2013-02-11 18:49:00,
2013-02-11 13:54:00,31.5,24.5,29.80,North,0,4.0,4.0,75,0.00,,OVC048,0.00,VWS V14.01,2013-02-11 18:54:00,
2013-02-11 13:59:00,31.3,24.6,29.80,NNW,333,2.7,4.0,76,0.00,,OVC048,0.00,VWS V14.01,2013-02-11 18:59:00,
2013-02-11 14:04:00,31.3,24.6,29.80,NNW,336,3.1,3.6,76,0.00,,OVC048,0.00,VWS V14.01,2013-02-11 19:04:00,
2013-02-11 14:09:00,31.5,24.8,29.80,NNW,330,0.0,0.0,76,0.00,,OVC048,0.00,VWS V14.01,2013-02-11 19:09:00,
2013-02-11 14:14:00,31.6,25.3,29.80,NNW,330,0.0,0.0,77,0.00,,OVC048,0.00,VWS V14.01,2013-02-11 19:14:00,
2013-02-11 14:19:00,31.6,25.3,29.80,NNW,330,0.0,0.0,77,0.00,,OVC048,0.00,VWS V14.01,2013-02-11 19:19:00,
2013-02-11 14:24:00,32.2,25.8,29.80,North,353,0.0,0.0,77,0.00,,OVC048,0.00,VWS V14.01,2013-02-11 19:24:00,
2013-02-11 14:29:00,32.2,25.8,29.80,North,357,4.9,4.9,77,0.00,,OVC048,0.00,VWS V14.01,2013-02-11 19:29:00,
2013-02-11 14:34:00,32.2,25.8,29.78,North,8,6.3,6.3,77,0.00,,OVC048,0.00,VWS V14.01,2013-02-11 19:34:00,
2013-02-11 14:39:00,32.0,25.6,29.78,NNW,342,2.7,2.7,77,0.00,,OVC048,0.00,VWS V14.01,2013-02-11 19:39:00,
2013-02-11 14:44:00,32.2,25.8,29.78,NNW,342,0.0,0.0,77,0.00,,OVC019,0.00,VWS V14.01,2013-02-11 19:44:00,
2013-02-11 14:49:00,32.5,26.5,29.78,NNW,342,0.0,0.0,78,0.00,,OVC019,0.00,VWS V14.01,2013-02-11 19:49:00,
2013-02-11 14:54:00,32.5,26.5,29.78,NNW,338,0.0,0.0,78,0.00,,OVC019,0.00,VWS V14.01,2013-02-11 19:54:00,
2013-02-11 14:59:00,32.7,26.6,29.78,NNW,330,4.0,4.0,78,0.00,,OVC019,0.00,VWS V14.01,2013-02-11 19:59:00,
2013-02-11 15:04:00,32.7,26.6,29.78,NW,326,3.1,3.1,78,0.00,,OVC019,0.00,VWS V14.01,2013-02-11 20:04:00,
2013-02-11 15:09:00,32.7,26.6,29.78,NNW,335,5.8,5.8,78,0.00,,OVC019,0.00,VWS V14.01,2013-02-11 20:09:00,
2013-02-11 15:14:00,32.7,26.6,29.78,NW,320,5.4,5.4,78,0.00,,OVC019,0.00,VWS V14.01,2013-02-11 20:14:00,
2013-02-11 15:19:00,32.7,26.6,29.78,NW,313,0.0,0.0,78,0.00,,OVC019,0.00,VWS V14.01,2013-02-11 20:19:00,
2013-02-11 15:24:00,33.1,27.3,29.78,North,353,0.0,0.0,79,0.00,,OVC019,0.00,VWS V14.01,2013-02-11 20:24:00,
2013-02-11 15:29:00,33.1,27.3,29.75,South,176,0.0,0.0,79,0.00,,OVC019,0.00,VWS V14.01,2013-02-11 20:29:00,
2013-02-11 15:34:00,33.8,28.0,29.75,North,357,0.0,0.0,79,0.00,,OVC019,0.00,VWS V14.01,2013-02-11 20:34:00,
2013-02-11 15:39:00,34.2,28.3,29.75,North,357,0.0,0.0,79,0.00,,OVC019,0.00,VWS V14.01,2013-02-11 20:39:00,
2013-02-11 15:44:00,34.5,28.7,29.75,NNW,338,3.6,3.6,79,0.00,,OVC010,0.00,VWS V14.01,2013-02-11 20:44:00,
2013-02-11 15:49:00,34.7,29.2,29.75,NNW,344,3.6,4.0,80,0.00,,OVC010,0.00,VWS V14.01,2013-02-11 20:49:00,
2013-02-11 15:54:00,35.1,29.5,29.75,NNW,340,2.7,4.9,80,0.00,,OVC010,0.00,VWS V14.01,2013-02-11 20:54:00,
2013-02-11 15:59:00,35.1,29.2,29.75,North,350,3.1,3.1,79,0.00,,OVC010,0.00,VWS V14.01,2013-02-11 20:59:00,
2013-02-11 16:04:00,35.1,29.2,29.75,North,3,4.9,4.9,79,0.00,,OVC010,0.00,VWS V14.01,2013-02-11 21:04:00,
2013-02-11 16:09:00,34.9,29.0,29.75,North,0,0.0,0.0,79,0.00,,OVC010,0.00,VWS V14.01,2013-02-11 21:09:00,
2013-02-11 16:14:00,34.9,29.0,29.75,NNW,328,0.0,0.0,79,0.00,,OVC010,0.00,VWS V14.01,2013-02-11 21:14:00,
2013-02-11 16:19:00,34.9,29.0,29.75,NNW,329,0.0,0.0,79,0.00,,OVC010,0.00,VWS V14.01,2013-02-11 21:19:00,
2013-02-11 16:24:00,34.9,29.0,29.75,North,357,0.0,0.0,79,0.00,,OVC010,0.00,VWS V14.01,2013-02-11 21:24:00,
2013-02-11 16:29:00,34.5,28.7,29.75,North,353,0.0,0.0,79,0.00,,OVC010,0.00,VWS V14.01,2013-02-11 21:29:00,
2013-02-11 16:34:00,34.2,28.0,29.75,NNW,338,3.1,3.1,78,0.00,,OVC010,0.00,VWS V14.01,2013-02-11 21:34:00,
2013-02-11 16:39:00,34.2,28.0,29.75,NNW,344,0.0,0.0,78,0.00,,OVC010,0.00,VWS V14.01,2013-02-11 21:39:00,
2013-02-11 16:44:00,34.0,27.9,29.75,NNW,344,0.0,0.0,78,0.00,,OVC012,0.00,VWS V14.01,2013-02-11 21:44:00,
2013-02-11 16:49:00,33.8,28.0,29.75,NNW,341,0.0,0.0,79,0.00,,OVC012,0.00,VWS V14.01,2013-02-11 21:49:00,
2013-02-11 16:54:00,33.8,28.0,29.75,North,349,4.5,4.5,79,0.00,,OVC080,0.00,VWS V14.01,2013-02-11 21:54:00,
2013-02-11 16:59:00,33.8,28.0,29.75,NNW,334,3.6,4.9,79,0.00,,OVC080,0.00,VWS V14.01,2013-02-11 21:59:00,
2013-02-11 17:04:00,33.8,28.0,29.72,NNW,337,0.0,0.0,79,0.00,,OVC080,0.00,VWS V14.01,2013-02-11 22:04:00,
2013-02-11 17:09:00,33.6,28.1,29.72,NNW,328,2.2,4.9,80,0.00,,OVC080,0.00,VWS V14.01,2013-02-11 22:09:00,
2013-02-11 17:14:00,33.6,28.1,29.72,North,357,0.0,0.0,80,0.00,,OVC080,0.00,VWS V14.01,2013-02-11 22:14:00,
2013-02-11 17:20:00,33.6,28.1,29.72,NNW,339,4.9,6.3,80,0.00,,OVC080,0.00,VWS V14.01,2013-02-11 22:20:00,
2013-02-11 17:25:00,33.3,27.8,29.72,NNW,329,2.7,3.1,80,0.00,,OVC080,0.00,VWS V14.01,2013-02-11 22:25:00,
2013-02-11 17:30:00,33.3,27.8,29.72,NNE,15,2.7,4.9,80,0.00,,OVC080,0.00,VWS V14.01,2013-02-11 22:30:00,
2013-02-11 17:35:00,33.3,28.1,29.72,North,357,0.0,4.9,81,0.00,,OVC080,0.00,VWS V14.01,2013-02-11 22:35:00,
2013-02-11 17:40:00,33.1,28.2,29.72,North,357,3.6,4.0,82,0.00,,OVC080,0.00,VWS V14.01,2013-02-11 22:40:00,
2013-02-11 17:45:00,33.1,28.2,29.72,North,357,4.0,5.4,82,0.00,,OVC075,0.00,VWS V14.01,2013-02-11 22:45:00,
2013-02-11 17:50:00,33.1,28.5,29.75,NNW,341,0.0,0.0,83,0.00,,OVC075,0.00,VWS V14.01,2013-02-11 22:50:00,
2013-02-11 17:55:00,33.1,28.5,29.75,NNW,337,0.0,0.0,83,0.00,,,0.00,VWS V14.01,2013-02-11 22:55:00,
2013-02-11 18:00:00,33.1,28.5,29.75,NW,316,0.0,0.0,83,0.00,,,0.00,VWS V14.01,2013-02-11 23:00:00,
2013-02-11 18:05:00,33.1,28.5,29.75,NW,316,0.0,0.0,83,0.00,,,0.00,VWS V14.01,2013-02-11 23:05:00,
2013-02-11 18:10:00,33.1,28.8,29.75,NW,316,0.0,0.0,84,0.00,,,0.00,VWS V14.01,2013-02-11 23:10:00,
2013-02-11 18:15:00,33.1,28.8,29.75,NW,316,0.0,0.0,84,0.00,,,0.00,VWS V14.01,2013-02-11 23:15:00,
2013-02-11 18:20:00,33.1,28.8,29.75,NW,316,0.0,0.0,84,0.00,,,0.00,VWS V14.01,2013-02-11 23:20:00,
2013-02-11 18:25:00,33.1,29.1,29.75,NW,316,0.0,0.0,85,0.00,,,0.00,VWS V14.01,2013-02-11 23:25:00,
2013-02-11 18:30:00,32.9,28.9,29.75,NW,316,0.0,0.0,85,0.00,,,0.00,VWS V14.01,2013-02-11 23:30:00,
2013-02-11 18:35:00,33.1,29.1,29.75,East,101,0.0,0.0,85,0.00,,,0.00,VWS V14.01,2013-02-11 23:35:00,
2013-02-11 18:40:00,33.1,29.1,29.75,SSE,150,0.0,4.9,85,0.00,,,0.00,VWS V14.01,2013-02-11 23:40:00,
2013-02-11 18:45:00,33.8,30.1,29.75,SSE,149,0.0,0.0,86,0.04,,OVC020,0.04,VWS V14.01,2013-02-11 23:45:00,
2013-02-11 18:50:00,34.5,30.8,29.75,SSE,160,6.3,6.3,86,0.04,,OVC020,0.04,VWS V14.01,2013-02-11 23:50:00,
2013-02-11 18:55:00,35.8,32.3,29.75,SE,140,7.6,7.6,87,0.04,,OVC020,0.04,VWS V14.01,2013-02-11 23:55:00,
2013-02-11 19:00:00,36.1,32.9,29.75,South,178,7.6,7.6,88,0.04,,OVC020,0.04,VWS V14.01,2013-02-12 00:00:00,
2013-02-11 19:05:00,36.3,33.1,29.78,SE,140,3.6,3.6,88,0.04,,,0.04,VWS V14.01,2013-02-12 00:05:00,
2013-02-11 19:10:00,36.3,33.1,29.78,South,183,10.1,10.1,88,0.04,,,0.04,VWS V14.01,2013-02-12 00:10:00,
2013-02-11 19:15:00,36.3,33.4,29.78,South,171,5.4,8.1,89,0.08,,RA,0.08,VWS V14.01,2013-02-12 00:15:00,
2013-02-11 19:20:00,35.8,32.9,29.78,SSE,155,4.9,4.9,89,0.08,,RA,0.08,VWS V14.01,2013-02-12 00:20:00,
2013-02-11 19:25:00,35.4,32.5,29.78,SE,134,5.8,5.8,89,0.08,,,0.08,VWS V14.01,2013-02-12 00:25:00,
2013-02-11 19:30:00,35.1,31.9,29.78,South,179,3.1,3.1,88,0.08,,,0.08,VWS V14.01,2013-02-12 00:30:00,
2013-02-11 19:35:00,34.9,31.7,29.78,WSW,241,3.1,3.1,88,0.08,,,0.08,VWS V14.01,2013-02-12 00:35:00,
2013-02-11 19:40:00,34.2,31.0,29.78,SE,146,5.4,5.4,88,0.12,,,0.12,VWS V14.01,2013-02-12 00:40:00,
2013-02-11 19:45:00,33.6,30.5,29.78,South,176,4.0,4.0,88,0.08,,,0.12,VWS V14.01,2013-02-12 00:45:00,
2013-02-11 19:50:00,33.6,30.5,29.78,SSW,204,4.0,4.0,88,0.08,,,0.12,VWS V14.01,2013-02-12 00:50:00,
2013-02-11 19:55:00,33.3,30.1,29.78,SW,231,0.0,0.0,88,0.08,,,0.12,VWS V14.01,2013-02-12 00:55:00,
2013-02-11 20:00:00,33.1,29.9,29.78,SSE,163,0.0,0.0,88,0.08,,,0.12,VWS V14.01,2013-02-12 01:00:00,
2013-02-11 20:05:00,33.1,29.9,29.78,South,189,0.0,0.0,88,0.08,,,0.12,VWS V14.01,2013-02-12 01:05:00,
2013-02-11 20:10:00,32.9,29.7,29.78,South,173,0.0,0.0,88,0.08,,,0.12,VWS V14.01,2013-02-12 01:10:00,
2013-02-11 20:15:00,32.7,29.6,29.78,SSE,154,0.0,0.0,88,0.04,,,0.12,VWS V14.01,2013-02-12 01:15:00,
2013-02-11 20:20:00,32.5,29.4,29.78,South,183,0.0,0.0,88,0.04,,,0.12,VWS V14.01,2013-02-12 01:20:00,
2013-02-11 20:25:00,32.5,29.4,29.78,SSE,160,0.0,0.0,88,0.04,,,0.12,VWS V14.01,2013-02-12 01:25:00,
2013-02-11 20:30:00,32.4,29.5,29.78,South,173,0.0,0.0,89,0.04,,,0.12,VWS V14.01,2013-02-12 01:30:00,
2013-02-11 20:35:00,32.2,29.3,29.78,South,174,0.0,0.0,89,0.04,,,0.12,VWS V14.01,2013-02-12 01:35:00,
2013-02-11 20:40:00,32.2,29.3,29.78,SW,218,0.0,0.0,89,0.00,,,0.12,VWS V14.01,2013-02-12 01:40:00,
2013-02-11 20:45:00,32.2,29.3,29.78,SSW,207,0.0,0.0,89,0.00,,,0.12,VWS V14.01,2013-02-12 01:45:00,
2013-02-11 20:50:00,32.2,29.3,29.78,SSE,154,0.0,0.0,89,0.00,,,0.12,VWS V14.01,2013-02-12 01:50:00,
2013-02-11 20:55:00,32.2,29.3,29.78,SSE,159,0.0,0.0,89,0.00,,,0.00,VWS V14.01,2013-02-12 01:55:00,
2013-02-11 21:00:00,32.2,29.3,29.78,South,179,0.0,0.0,89,0.00,,,0.12,VWS V14.01,2013-02-12 02:00:00,
2013-02-11 21:05:00,32.0,29.1,29.78,South,169,0.0,0.0,89,0.00,,,0.12,VWS V14.01,2013-02-12 02:05:00,
2013-02-11 21:10:00,32.0,29.1,29.78,South,170,0.0,0.0,89,0.00,,,0.12,VWS V14.01,2013-02-12 02:10:00,
2013-02-11 21:15:00,31.8,29.0,29.78,SE,142,0.0,0.0,89,0.00,,,0.12,VWS V14.01,2013-02-12 02:15:00,
2013-02-11 21:20:00,31.8,28.7,29.78,South,173,0.0,0.0,88,0.00,,,0.12,VWS V14.01,2013-02-12 02:20:00,
2013-02-11 21:25:00,31.8,28.7,29.78,South,185,0.0,0.0,88,0.00,,,0.12,VWS V14.01,2013-02-12 02:25:00,
2013-02-11 21:30:00,31.8,28.7,29.78,SE,142,0.0,0.0,88,0.00,,,0.12,VWS V14.01,2013-02-12 02:30:00,
2013-02-11 21:36:00,31.6,28.2,29.78,South,179,0.0,0.0,87,0.00,,OVC030,0.12,VWS V14.01,2013-02-12 02:36:00,
2013-02-11 21:40:00,31.6,28.2,29.78,WSW,249,0.0,0.0,87,0.00,,OVC030,0.12,VWS V14.01,2013-02-12 02:40:00,
2013-02-11 21:46:00,31.5,28.0,29.75,SSW,194,0.0,0.0,87,0.00,,OVC030,0.12,VWS V14.01,2013-02-12 02:46:00,
2013-02-11 21:51:00,31.5,28.0,29.75,SSE,164,0.0,0.0,87,0.00,,OVC030,0.12,VWS V14.01,2013-02-12 02:51:00,
2013-02-11 21:56:00,31.3,27.9,29.75,SSE,147,0.0,0.0,87,0.00,,OVC030,0.12,VWS V14.01,2013-02-12 02:56:00,
2013-02-11 22:01:00,31.3,27.9,29.75,SSE,160,0.0,0.0,87,0.00,,OVC030,0.12,VWS V14.01,2013-02-12 03:01:00,
2013-02-11 22:06:00,31.3,27.6,29.75,ESE,119,0.0,0.0,86,0.00,,OVC030,0.12,VWS V14.01,2013-02-12 03:06:00,
2013-02-11 22:11:00,31.1,27.4,29.75,South,177,0.0,0.0,86,0.00,,OVC030,0.12,VWS V14.01,2013-02-12 03:11:00,
2013-02-11 22:16:00,31.1,27.1,29.75,SW,222,0.0,0.0,85,0.00,,OVC030,0.12,VWS V14.01,2013-02-12 03:16:00,
2013-02-11 22:21:00,31.1,27.1,29.75,South,179,0.0,0.0,85,0.00,,OVC030,0.12,VWS V14.01,2013-02-12 03:21:00,
2013-02-11 22:26:00,31.1,26.8,29.75,SW,232,0.0,0.0,84,0.00,,OVC030,0.12,VWS V14.01,2013-02-12 03:26:00,
2013-02-11 22:31:00,31.1,26.8,29.75,SW,214,0.0,0.0,84,0.00,,OVC030,0.12,VWS V14.01,2013-02-12 03:31:00,
2013-02-11 22:36:00,30.9,26.7,29.75,South,182,0.0,0.0,84,0.00,,OVC030,0.12,VWS V14.01,2013-02-12 03:36:00,
2013-02-11 22:41:00,30.9,26.4,29.75,South,173,0.0,0.0,83,0.00,,,0.12,VWS V14.01,2013-02-12 03:41:00,
2013-02-11 22:46:00,30.9,26.4,29.75,South,177,0.0,0.0,83,0.00,,,0.12,VWS V14.01,2013-02-12 03:46:00,
2013-02-11 22:51:00,30.7,26.2,29.75,South,169,0.0,0.0,83,0.00,,,0.12,VWS V14.01,2013-02-12 03:51:00,
2013-02-11 22:56:00,30.7,26.2,29.75,SSE,160,0.0,0.0,83,0.00,,,0.12,VWS V14.01,2013-02-12 03:56:00,
2013-02-11 23:01:00,30.6,26.0,29.75,South,190,0.0,0.0,83,0.00,,,0.12,VWS V14.01,2013-02-12 04:01:00,
2013-02-11 23:06:00,30.6,26.0,29.75,SW,223,0.0,0.0,83,0.00,,,0.12,VWS V14.01,2013-02-12 04:06:00,
2013-02-11 23:11:00,30.6,26.0,29.75,SSW,192,0.0,0.0,83,0.00,,,0.12,VWS V14.01,2013-02-12 04:11:00,
2013-02-11 23:16:00,30.6,26.0,29.75,South,188,0.0,0.0,83,0.00,,,0.12,VWS V14.01,2013-02-12 04:16:00,
2013-02-11 23:21:00,30.4,25.9,29.75,SE,143,0.0,0.0,83,0.00,,,0.12,VWS V14.01,2013-02-12 04:21:00,
2013-02-11 23:26:00,30.4,25.9,29.75,SSE,149,0.0,0.0,83,0.00,,,0.12,VWS V14.01,2013-02-12 04:26:00,
2013-02-11 23:31:00,30.4,25.9,29.75,SSW,192,0.0,0.0,83,0.00,,,0.12,VWS V14.01,2013-02-12 04:31:00,
2013-02-11 23:36:00,30.4,25.9,29.75,SSW,197,0.0,0.0,83,0.00,,,0.12,VWS V14.01,2013-02-12 04:36:00,
2013-02-11 23:41:00,30.4,25.9,29.75,SW,232,0.0,0.0,83,0.00,,OVC016,0.12,VWS V14.01,2013-02-12 04:41:00,
2013-02-11 23:46:00,30.6,26.0,29.75,South,183,0.0,0.0,83,0.00,,OVC016,0.12,VWS V14.01,2013-02-12 04:46:00,
2013-02-11 23:51:00,30.6,26.0,29.75,SSE,158,0.0,0.0,83,0.00,,OVC016,0.12,VWS V14.01,2013-02-12 04:51:00,
2013-02-11 23:56:00,30.6,26.0,29.75,SSE,154,0.0,0.0,83,0.00,,OVC016,0.12,VWS V14.01,2013-02-12 04:56:00,